PHBHV EHSE-EHSE
Flight info
| Callsign | PHBHV |
|---|---|
| Flight time | 0h 4m |
| Altitude | 1500 |
| Route | 5139N00436E |
| Aircraft | C172/L-SFG/C |
Departure
| Time | 2026-04-29 07:55 |
|---|---|
| Airport | Breda International Airport (EHSE) |
Arrival
| Time | 2026-04-29 07:59 |
|---|---|
| Airport | Breda International Airport (EHSE) |
| Time | Latitude | Longitude | Altitude | Speed | Heading |
|---|---|---|---|---|---|
| 2026-04-29 07:49 | 51.55524 | 4.54993 | 41 ft | 0 kts | 37° |
| 2026-04-29 07:53 | 51.55534 | 4.54985 | 41 ft | 3 kts | 255° |
| 2026-04-29 07:53 | 51.55481 | 4.55005 | 41 ft | 14 kts | 156° |
| 2026-04-29 07:54 | 51.55435 | 4.54907 | 41 ft | 15 kts | 245° |
| 2026-04-29 07:54 | 51.55369 | 4.54771 | 43 ft | 14 kts | 156° |
| 2026-04-29 07:54 | 51.55320 | 4.54792 | 42 ft | 0 kts | 95° |
| 2026-04-29 07:54 | 51.55386 | 4.54916 | 40 ft | 40 kts | 66° |
| 2026-04-29 07:55 | 51.55549 | 4.55462 | 181 ft | 60 kts | 61° |
| 2026-04-29 07:55 | 51.55737 | 4.56064 | 476 ft | 56 kts | 69° |
| 2026-04-29 07:55 | 51.55877 | 4.56627 | 697 ft | 60 kts | 67° |
| 2026-04-29 07:55 | 51.56050 | 4.57186 | 998 ft | 56 kts | 68° |
| 2026-04-29 07:56 | 51.56221 | 4.57712 | 1326 ft | 53 kts | 54° |
| 2026-04-29 07:56 | 51.56693 | 4.57625 | 1581 ft | 84 kts | 350° |
| 2026-04-29 07:56 | 51.57168 | 4.57040 | 1831 ft | 88 kts | 346° |
| 2026-04-29 07:56 | 51.57767 | 4.56459 | 1827 ft | 112 kts | 348° |
| 2026-04-29 07:57 | 51.58490 | 4.55778 | 1866 ft | 135 kts | 320° |
| 2026-04-29 07:57 | 51.58334 | 4.54180 | 1708 ft | 156 kts | 241° |
| 2026-04-29 07:57 | 51.57837 | 4.52666 | 1757 ft | 147 kts | 233° |
| 2026-04-29 07:57 | 51.57299 | 4.51280 | 1830 ft | 147 kts | 228° |
| 2026-04-29 07:58 | 51.56501 | 4.50430 | 1850 ft | 135 kts | 189° |
| 2026-04-29 07:58 | 51.55645 | 4.50156 | 1781 ft | 119 kts | 168° |
| 2026-04-29 07:58 | 51.54839 | 4.50307 | 1335 ft | 114 kts | 133° |
| 2026-04-29 07:58 | 51.54743 | 4.51447 | 902 ft | 100 kts | 85° |
| 2026-04-29 07:59 | 51.54795 | 4.52448 | 488 ft | 81 kts | 81° |
| 2026-04-29 07:59 | 51.54921 | 4.53181 | 347 ft | 56 kts | 67° |
| 2026-04-29 07:59 | 51.55038 | 4.53641 | 231 ft | 41 kts | 74° |
| 2026-04-29 07:59 | 51.55119 | 4.53872 | 38 ft | 0 kts | 36° |